createdAt,value
2023-09-06T00:01:15.832Z,101406.59
2023-09-06T00:03:46.291Z,101406.16
2023-09-06T00:06:23.577Z,101394.53
2023-09-06T00:08:56.200Z,101411.75
2023-09-06T00:11:27.771Z,101412.97
2023-09-06T00:13:57.846Z,101409.00
2023-09-06T00:16:31.170Z,101410.34
2023-09-06T00:19:01.759Z,101410.16
2023-09-06T00:21:42.310Z,101406.69
2023-09-06T00:24:16.034Z,101407.94
2023-09-06T00:26:46.585Z,101410.28
2023-09-06T00:29:18.408Z,101392.63
2023-09-06T00:31:48.528Z,101405.84
2023-09-06T00:34:18.818Z,101385.22
2023-09-06T00:36:55.827Z,101401.88
2023-09-06T00:39:29.516Z,101398.09
2023-09-06T00:42:01.671Z,101403.88
2023-09-06T00:44:34.535Z,101401.09
2023-09-06T00:47:14.266Z,101410.97
2023-09-06T00:49:45.481Z,101419.88
2023-09-06T00:52:19.050Z,101409.44
2023-09-06T00:54:51.703Z,101413.41
2023-09-06T00:57:22.736Z,101409.84
2023-09-06T00:59:54.738Z,101413.84
2023-09-06T01:02:25.031Z,101412.75
2023-09-06T01:04:58.844Z,101408.44
2023-09-06T01:07:36.152Z,101406.63
2023-09-06T01:10:07.518Z,101407.75
2023-09-06T01:12:38.929Z,101414.09
2023-09-06T01:15:14.358Z,101408.09
2023-09-06T01:17:46.404Z,101412.09
2023-09-06T01:20:22.081Z,101413.09
2023-09-06T01:23:03.943Z,101403.53
2023-09-06T01:25:39.903Z,101408.63
2023-09-06T01:28:10.287Z,101409.44
2023-09-06T01:30:41.057Z,101405.78
2023-09-06T01:33:11.268Z,101417.53
2023-09-06T01:35:41.857Z,101403.63
2023-09-06T01:38:16.196Z,101404.31
2023-09-06T01:40:50.214Z,101368.78
2023-09-06T01:43:21.077Z,101402.41
2023-09-06T01:45:53.323Z,101405.75
2023-09-06T01:48:28.427Z,101408.97
2023-09-06T01:50:59.564Z,101414.63
2023-09-06T01:53:33.835Z,101421.25
2023-09-06T01:56:08.578Z,101412.72
2023-09-06T01:58:39.807Z,101416.72
2023-09-06T02:01:11.327Z,101418.25
2023-09-06T02:03:42.460Z,101413.84
2023-09-06T02:06:13.618Z,101421.34
2023-09-06T02:08:43.844Z,101420.25
2023-09-06T02:11:20.191Z,101423.34
2023-09-06T02:13:51.390Z,101418.91
2023-09-06T02:16:23.271Z,101417.00
2023-09-06T02:18:53.980Z,101420.22
2023-09-06T02:21:27.527Z,101422.75
2023-09-06T02:23:58.436Z,101422.75
2023-09-06T02:26:31.858Z,101434.66
2023-09-06T02:29:05.562Z,101429.41
2023-09-06T02:31:35.652Z,101429.09
2023-09-06T02:34:06.121Z,101425.53
2023-09-06T02:36:36.175Z,101427.81
2023-09-06T02:39:06.384Z,101427.81
2023-09-06T02:41:39.185Z,101425.41
2023-09-06T02:44:11.668Z,101413.09
2023-09-06T02:46:41.777Z,101435.72
2023-09-06T02:49:15.243Z,101432.94
2023-09-06T02:51:54.126Z,101421.47
2023-09-06T02:54:24.532Z,101437.69
2023-09-06T02:56:58.702Z,101429.75
2023-09-06T02:59:31.610Z,101438.09
2023-09-06T03:02:02.731Z,101445.75
2023-09-06T03:04:39.254Z,101430.88
2023-09-06T03:07:10.813Z,101447.81
2023-09-06T03:09:46.320Z,101442.50
2023-09-06T03:12:23.132Z,101442.34
2023-09-06T03:14:56.950Z,101442.13
2023-09-06T03:17:27.245Z,101448.66
2023-09-06T03:20:01.103Z,101454.28
2023-09-06T03:22:31.638Z,101458.38
2023-09-06T03:25:04.390Z,101448.81
2023-09-06T03:27:37.397Z,101442.25
2023-09-06T03:30:09.345Z,101449.72
2023-09-06T03:32:43.871Z,101451.25
2023-09-06T03:35:17.529Z,101462.47
2023-09-06T03:37:49.615Z,101438.84
2023-09-06T03:40:26.838Z,101461.69
2023-09-06T03:43:16.131Z,101447.47
2023-09-06T03:45:52.575Z,101464.00
2023-09-06T03:48:25.298Z,101463.63
2023-09-06T03:50:59.142Z,101465.44
2023-09-06T03:53:30.866Z,101451.84
2023-09-06T03:56:02.103Z,101462.63
2023-09-06T03:59:01.965Z,101464.84
2023-09-06T04:01:34.433Z,101465.38
2023-09-06T04:04:14.321Z,101461.03
2023-09-06T04:06:45.553Z,101454.69
2023-09-06T04:09:20.207Z,101463.97
2023-09-06T04:11:50.717Z,101459.56
2023-09-06T04:14:26.679Z,101449.53
2023-09-06T04:17:00.998Z,101460.09
2023-09-06T04:19:35.253Z,101461.50
2023-09-06T04:22:14.402Z,101454.00
2023-09-06T04:24:47.452Z,101460.13
2023-09-06T04:27:17.872Z,101467.41
2023-09-06T04:29:53.977Z,101465.50
2023-09-06T04:32:24.456Z,101441.38
2023-09-06T04:35:06.559Z,101464.00
2023-09-06T04:37:39.521Z,101431.97
2023-09-06T04:40:15.749Z,101467.84
2023-09-06T04:42:50.822Z,101472.84
2023-09-06T04:45:31.659Z,101481.31
2023-09-06T04:48:04.393Z,101485.69
2023-09-06T04:50:39.380Z,101476.13
2023-09-06T04:53:13.144Z,101469.59
2023-09-06T04:55:44.013Z,101470.91
2023-09-06T04:58:15.456Z,101476.78
2023-09-06T05:00:50.783Z,101473.84
2023-09-06T05:03:23.728Z,101487.47
2023-09-06T05:05:57.978Z,101489.22
2023-09-06T05:08:34.618Z,101485.44
2023-09-06T05:11:21.732Z,101491.53
2023-09-06T05:13:55.556Z,101485.78
2023-09-06T05:16:30.346Z,101487.56
2023-09-06T05:19:02.474Z,101471.69
2023-09-06T05:21:41.169Z,101483.34
2023-09-06T05:24:16.240Z,101488.84
2023-09-06T05:26:46.625Z,101487.19
2023-09-06T05:29:19.748Z,101497.63
2023-09-06T05:31:52.688Z,101495.44
2023-09-06T05:34:23.138Z,101495.69
2023-09-06T05:36:56.063Z,101504.72
2023-09-06T05:39:26.553Z,101501.34
2023-09-06T05:41:58.093Z,101505.31
2023-09-06T05:44:28.526Z,101506.00
2023-09-06T05:47:17.046Z,101496.69
2023-09-06T05:50:03.958Z,101505.59
2023-09-06T05:52:37.658Z,101512.47
2023-09-06T05:55:09.455Z,101520.22
2023-09-06T05:57:42.459Z,101521.88
2023-09-06T06:00:27.163Z,101502.91
2023-09-06T06:03:03.376Z,101521.78
2023-09-06T06:05:34.111Z,101514.66
2023-09-06T06:08:04.231Z,101521.34
2023-09-06T06:10:36.397Z,101521.34
2023-09-06T06:13:08.535Z,101518.91
2023-09-06T06:15:41.583Z,101520.47
2023-09-06T06:18:18.980Z,101523.88
2023-09-06T06:20:56.419Z,101524.66
2023-09-06T06:23:31.432Z,101531.16
2023-09-06T06:26:01.778Z,101523.03
2023-09-06T06:28:32.201Z,101519.28
2023-09-06T06:31:05.161Z,101521.94
2023-09-06T06:33:56.307Z,101530.38
2023-09-06T06:36:26.553Z,101527.03
2023-09-06T06:38:57.963Z,101529.09
2023-09-06T06:41:30.872Z,101530.34
2023-09-06T06:44:01.093Z,101536.75
2023-09-06T06:46:33.342Z,101529.28
2023-09-06T06:51:52.490Z,101526.28
2023-09-06T06:54:24.690Z,101523.47
2023-09-06T06:56:54.835Z,101531.91
2023-09-06T06:59:32.678Z,101532.00
2023-09-06T07:02:06.987Z,101538.31
2023-09-06T07:04:41.153Z,101516.31
2023-09-06T07:07:11.682Z,101535.41
2023-09-06T07:09:48.592Z,101533.03
2023-09-06T07:12:23.043Z,101538.78
2023-09-06T07:14:55.525Z,101536.09
2023-09-06T07:17:27.693Z,101545.84
2023-09-06T07:20:01.306Z,101538.47
2023-09-06T07:22:32.355Z,101537.88
2023-09-06T07:25:06.537Z,101540.75
2023-09-06T07:27:37.704Z,101540.16
2023-09-06T07:30:11.090Z,101539.47
2023-09-06T07:32:48.456Z,101544.97
2023-09-06T07:35:21.329Z,101550.72
2023-09-06T07:37:52.200Z,101543.72
2023-09-06T07:40:22.649Z,101547.00
2023-09-06T07:42:53.509Z,101557.03
2023-09-06T07:45:27.861Z,101547.22
2023-09-06T07:47:59.710Z,101553.63
2023-09-06T07:50:33.652Z,101541.69
2023-09-06T07:53:06.069Z,101551.72
2023-09-06T07:55:36.133Z,101550.84
2023-09-06T07:58:11.589Z,101553.16
2023-09-06T08:00:43.893Z,101545.94
2023-09-06T08:03:14.667Z,101536.41
2023-09-06T08:05:48.122Z,101557.56
2023-09-06T08:08:20.718Z,101555.84
2023-09-06T08:10:51.070Z,101554.69
2023-09-06T08:13:44.467Z,101554.34
2023-09-06T08:16:14.910Z,101544.63
2023-09-06T08:18:49.316Z,101553.06
2023-09-06T08:21:24.781Z,101555.38
2023-09-06T08:23:54.935Z,101557.06
2023-09-06T08:26:25.164Z,101532.44
2023-09-06T08:28:57.959Z,101554.31
2023-09-06T08:31:28.218Z,101561.75
2023-09-06T08:33:58.780Z,101552.88
2023-09-06T08:36:33.252Z,101551.34
2023-09-06T08:39:03.319Z,101535.31
2023-09-06T08:41:49.337Z,101566.75
2023-09-06T08:44:40.818Z,101569.56
2023-09-06T08:47:17.966Z,101546.19
2023-09-06T08:49:50.407Z,101560.06
2023-09-06T08:52:23.458Z,101557.56
2023-09-06T08:54:56.677Z,101551.31
2023-09-06T08:57:30.480Z,101554.72
2023-09-06T09:00:03.399Z,101553.44
2023-09-06T09:02:34.766Z,101546.19
2023-09-06T09:05:19.020Z,101547.38
2023-09-06T09:08:01.902Z,101552.06
2023-09-06T09:10:35.639Z,101557.72
2023-09-06T09:13:14.356Z,101556.53
2023-09-06T09:15:44.576Z,101558.97
2023-09-06T09:18:16.606Z,101553.56
2023-09-06T09:20:48.835Z,101554.97
2023-09-06T09:23:21.528Z,101557.88
2023-09-06T09:25:52.107Z,101558.19
2023-09-06T09:28:32.255Z,101557.78
2023-09-06T09:31:02.537Z,101558.84
2023-09-06T09:33:36.634Z,101556.63
2023-09-06T09:36:07.501Z,101544.47
2023-09-06T09:38:44.747Z,101556.91
2023-09-06T09:44:17.630Z,101543.66
2023-09-06T09:46:49.142Z,101553.38
2023-09-06T09:49:24.498Z,101560.97
2023-09-06T09:51:55.015Z,101561.13
2023-09-06T09:54:29.744Z,101552.84
2023-09-06T09:57:08.118Z,101547.31
2023-09-06T09:59:44.704Z,101521.88
2023-09-06T10:02:22.478Z,101541.81
2023-09-06T10:05:04.268Z,101545.59
2023-09-06T10:07:48.761Z,101551.03
2023-09-06T10:10:22.620Z,101541.88
2023-09-06T10:12:54.703Z,101543.25
2023-09-06T10:15:26.409Z,101542.69
2023-09-06T10:18:00.176Z,101546.44
2023-09-06T10:20:33.530Z,101541.63
2023-09-06T10:23:06.119Z,101543.75
2023-09-06T10:25:43.551Z,101540.38
2023-09-06T10:28:13.610Z,101540.75
2023-09-06T10:30:47.201Z,101546.19
2023-09-06T10:33:50.021Z,101537.59
2023-09-06T10:36:21.611Z,101536.66
2023-09-06T10:39:20.040Z,101541.44
2023-09-06T10:42:23.822Z,101538.28
2023-09-06T10:45:18.707Z,101534.13
2023-09-06T10:47:49.394Z,101537.69
2023-09-06T10:50:22.093Z,101533.72
2023-09-06T10:52:59.985Z,101541.28
2023-09-06T10:55:31.930Z,101541.28
2023-09-06T10:58:14.234Z,101536.66
2023-09-06T11:00:44.772Z,101539.44
2023-09-06T11:03:23.301Z,101531.44
2023-09-06T11:06:00.229Z,101540.84
2023-09-06T11:08:34.313Z,101538.16
2023-09-06T11:11:06.379Z,101539.81
2023-09-06T11:13:40.484Z,101538.16
2023-09-06T11:16:17.285Z,101534.63
2023-09-06T11:18:49.013Z,101537.56
2023-09-06T11:21:24.485Z,101541.63
2023-09-06T11:23:57.692Z,101531.41
2023-09-06T11:26:29.678Z,101533.75
2023-09-06T11:29:13.437Z,101534.75
2023-09-06T11:31:43.379Z,101541.91
2023-09-06T11:34:15.566Z,101509.19
2023-09-06T11:36:46.040Z,101531.13
2023-09-06T11:39:20.577Z,101531.63
2023-09-06T11:41:51.779Z,101536.34
2023-09-06T11:44:27.852Z,101529.09
2023-09-06T11:47:04.510Z,101520.34
2023-09-06T11:49:46.428Z,101534.84
2023-09-06T11:52:24.828Z,101526.63
2023-09-06T11:55:04.802Z,101533.13
2023-09-06T11:57:35.260Z,101523.63
2023-09-06T12:00:19.417Z,101531.50
2023-09-06T12:02:50.741Z,101503.19
2023-09-06T12:05:42.477Z,101531.50
2023-09-06T12:08:21.133Z,101527.16
2023-09-06T12:11:07.625Z,101519.66
2023-09-06T12:13:39.793Z,101522.50
2023-09-06T12:16:14.367Z,101510.25
2023-09-06T12:18:44.542Z,101520.19
2023-09-06T12:21:16.734Z,101514.22
2023-09-06T12:23:48.810Z,101500.38
2023-09-06T12:26:21.017Z,101509.53
2023-09-06T12:28:54.633Z,101497.88
2023-09-06T12:31:27.147Z,101502.94
2023-09-06T12:33:57.384Z,101503.72
2023-09-06T12:36:28.353Z,101500.94
2023-09-06T12:39:07.746Z,101495.75
2023-09-06T12:41:38.821Z,101487.25
2023-09-06T12:44:11.382Z,101488.28
2023-09-06T12:46:44.182Z,101489.34
2023-09-06T12:49:16.538Z,101479.81
2023-09-06T12:51:49.536Z,101482.59
2023-09-06T12:54:21.162Z,101479.16
2023-09-06T12:56:51.253Z,101466.84
2023-09-06T12:59:23.850Z,101478.59
2023-09-06T13:01:56.749Z,101479.34
2023-09-06T13:04:27.046Z,101472.31
2023-09-06T13:06:58.629Z,101475.09
2023-09-06T13:09:28.669Z,101469.91
2023-09-06T13:11:58.787Z,101461.94
2023-09-06T13:14:31.449Z,101467.88
2023-09-06T13:17:13.903Z,101464.38
2023-09-06T13:19:47.371Z,101474.25
2023-09-06T13:22:18.648Z,101463.19
2023-09-06T13:24:50.195Z,101457.50
2023-09-06T13:27:21.382Z,101467.91
2023-09-06T13:29:56.463Z,101468.97
2023-09-06T13:32:29.187Z,101465.28
2023-09-06T13:34:59.473Z,101460.28
2023-09-06T13:37:33.469Z,101462.31
2023-09-06T13:40:12.758Z,101456.38
2023-09-06T13:42:45.501Z,101459.16
2023-09-06T13:45:19.096Z,101458.22
2023-09-06T13:47:53.913Z,101454.72
2023-09-06T13:50:24.101Z,101457.53
2023-09-06T13:52:58.035Z,101446.97
2023-09-06T13:55:29.670Z,101442.31
2023-09-06T13:57:59.867Z,101433.63
2023-09-06T14:00:30.074Z,101440.97
2023-09-06T14:03:03.457Z,101445.28
2023-09-06T14:05:34.550Z,101444.38
2023-09-06T14:08:04.820Z,101444.38
2023-09-06T14:10:34.963Z,101444.25
2023-09-06T14:13:05.016Z,101442.53
2023-09-06T14:15:37.401Z,101424.28
2023-09-06T14:18:10.461Z,101441.00
2023-09-06T14:20:41.000Z,101431.44
2023-09-06T14:23:15.301Z,101435.66
2023-09-06T14:25:45.565Z,101439.19
2023-09-06T14:28:16.020Z,101427.09
2023-09-06T14:30:49.809Z,101433.06
2023-09-06T14:33:22.541Z,101427.81
2023-09-06T14:35:54.876Z,101431.41
2023-09-06T14:38:27.007Z,101428.97
2023-09-06T14:40:59.382Z,101434.16
2023-09-06T14:43:30.061Z,101427.34
2023-09-06T14:46:06.396Z,101432.56
2023-09-06T14:48:39.218Z,101427.41
2023-09-06T14:51:09.606Z,101423.19
2023-09-06T14:53:40.297Z,101419.72
2023-09-06T14:56:16.692Z,101421.56
2023-09-06T14:58:47.040Z,101426.66
2023-09-06T15:01:17.443Z,101428.34
2023-09-06T15:03:50.461Z,101412.53
2023-09-06T15:06:23.636Z,101414.28
2023-09-06T15:08:57.568Z,101409.78
2023-09-06T15:11:31.539Z,101400.78
2023-09-06T15:14:01.723Z,101413.84
2023-09-06T15:16:31.769Z,101405.97
2023-09-06T15:19:04.744Z,101419.03
2023-09-06T15:21:36.044Z,101415.63
2023-09-06T15:24:06.646Z,101415.59
2023-09-06T15:26:37.925Z,101418.16
2023-09-06T15:29:08.026Z,101408.59
2023-09-06T15:31:38.185Z,101409.34
2023-09-06T15:34:11.743Z,101401.97
2023-09-06T15:36:44.311Z,101413.28
2023-09-06T15:39:15.109Z,101396.69
2023-09-06T15:41:47.962Z,101406.06
2023-09-06T15:44:18.183Z,101403.22
2023-09-06T15:46:49.199Z,101393.53
2023-09-06T15:49:22.180Z,101401.47
2023-09-06T15:51:53.746Z,101399.59
2023-09-06T15:54:24.428Z,101402.03
2023-09-06T15:56:56.418Z,101401.13
2023-09-06T15:59:27.177Z,101404.44
2023-09-06T16:01:57.336Z,101409.59
2023-09-06T16:04:32.426Z,101408.56
2023-09-06T16:07:03.020Z,101395.44
2023-09-06T16:09:33.063Z,101394.44
2023-09-06T16:12:03.160Z,101402.91
2023-09-06T16:14:34.118Z,101407.03
2023-09-06T16:17:05.097Z,101401.84
2023-09-06T16:19:37.972Z,101398.22
2023-09-06T16:22:08.427Z,101409.13
2023-09-06T16:24:42.702Z,101410.69
2023-09-06T16:27:13.270Z,101410.50
2023-09-06T16:29:49.529Z,101405.06
2023-09-06T16:32:19.723Z,101408.31
2023-09-06T16:34:54.846Z,101412.34
2023-09-06T16:37:24.898Z,101423.34
2023-09-06T16:39:56.087Z,101412.78
2023-09-06T16:42:26.100Z,101419.53
2023-09-06T16:44:56.729Z,101386.00
2023-09-06T16:47:27.219Z,101408.78
2023-09-06T16:50:01.863Z,101404.22
2023-09-06T16:52:34.099Z,101407.31
2023-09-06T16:55:06.164Z,101412.34
2023-09-06T16:57:36.315Z,101416.53
2023-09-06T17:00:10.320Z,101412.78
2023-09-06T17:02:41.038Z,101405.47
2023-09-06T17:05:14.308Z,101418.34
2023-09-06T17:07:47.644Z,101417.09
2023-09-06T17:10:20.609Z,101418.63
2023-09-06T17:12:51.092Z,101421.06
2023-09-06T17:15:34.871Z,101421.72
2023-09-06T17:18:04.953Z,101419.53
2023-09-06T17:20:38.187Z,101421.94
2023-09-06T17:23:08.892Z,101424.19
2023-09-06T17:25:43.336Z,101422.19
2023-09-06T17:28:14.188Z,101438.22
2023-09-06T17:30:45.240Z,101404.53
2023-09-06T17:33:25.857Z,101421.69
2023-09-06T17:35:58.571Z,101435.31
2023-09-06T17:38:28.896Z,101431.53
2023-09-06T17:41:00.374Z,101416.13
2023-09-06T17:43:31.492Z,101436.13
2023-09-06T17:46:02.648Z,101434.84
2023-09-06T17:48:45.633Z,101437.97
2023-09-06T17:51:18.885Z,101439.41
2023-09-06T17:53:49.196Z,101446.81
2023-09-06T17:56:25.069Z,101438.69
2023-09-06T17:58:55.619Z,101438.28
2023-09-06T18:01:27.496Z,101440.47
2023-09-06T18:03:59.859Z,101434.88
2023-09-06T18:06:32.881Z,101437.22
2023-09-06T18:09:09.088Z,101435.13
2023-09-06T18:11:39.175Z,101436.34
2023-09-06T18:14:10.913Z,101440.44
2023-09-06T18:16:43.776Z,101443.56
2023-09-06T18:19:14.232Z,101449.16
2023-09-06T18:21:50.766Z,101429.19
2023-09-06T18:24:22.656Z,101459.72
2023-09-06T18:27:06.963Z,101459.19
2023-09-06T18:29:38.303Z,101460.84
2023-09-06T18:32:10.741Z,101471.72
2023-09-06T18:34:40.830Z,101468.09
2023-09-06T18:37:13.809Z,101473.91
2023-09-06T18:39:46.305Z,101478.78
2023-09-06T18:42:20.440Z,101479.44
2023-09-06T18:44:53.383Z,101483.31
2023-09-06T18:47:23.617Z,101482.13
2023-09-06T18:49:59.356Z,101478.44
2023-09-06T18:52:32.121Z,101460.44
2023-09-06T18:55:10.554Z,101471.56
2023-09-06T18:57:55.007Z,101476.34
2023-09-06T19:00:40.958Z,101479.50
2023-09-06T19:03:14.566Z,101481.72
2023-09-06T19:05:47.284Z,101472.56
2023-09-06T19:08:20.245Z,101467.97
2023-09-06T19:10:54.152Z,101470.31
2023-09-06T19:13:24.589Z,101472.66
2023-09-06T19:15:56.566Z,101470.72
2023-09-06T19:18:27.016Z,101472.16
2023-09-06T19:20:58.480Z,101471.88
2023-09-06T19:23:33.159Z,101481.97
2023-09-06T19:26:06.319Z,101474.81
2023-09-06T19:28:38.376Z,101466.56
2023-09-06T19:31:10.764Z,101478.84
2023-09-06T19:33:41.398Z,101480.19
2023-09-06T19:36:12.697Z,101487.91
2023-09-06T19:38:45.521Z,101490.41
2023-09-06T19:41:15.809Z,101482.97
2023-09-06T19:43:49.417Z,101484.75
2023-09-06T19:46:19.576Z,101480.94
2023-09-06T19:49:05.041Z,101497.97
2023-09-06T19:51:41.416Z,101489.91
2023-09-06T19:54:14.447Z,101489.75
2023-09-06T19:56:44.583Z,101487.91
2023-09-06T19:59:16.277Z,101483.38
2023-09-06T20:01:48.854Z,101479.59
2023-09-06T20:04:21.553Z,101482.88
2023-09-06T20:06:51.864Z,101479.59
2023-09-06T20:09:29.379Z,101490.53
2023-09-06T20:11:59.504Z,101489.47
2023-09-06T20:14:29.939Z,101491.78
2023-09-06T20:17:04.407Z,101491.63
2023-09-06T20:19:34.680Z,101487.88
2023-09-06T20:22:05.157Z,101482.16
2023-09-06T20:24:40.109Z,101493.47
2023-09-06T20:27:13.457Z,101495.91
2023-09-06T20:29:48.189Z,101502.56
2023-09-06T20:32:18.537Z,101503.84
2023-09-06T20:34:48.783Z,101503.69
2023-09-06T20:37:18.845Z,101498.25
2023-09-06T20:39:51.576Z,101472.91
2023-09-06T20:42:21.828Z,101479.72
2023-09-06T20:44:51.904Z,101504.19
2023-09-06T20:47:24.791Z,101504.88
2023-09-06T20:49:59.874Z,101503.81
2023-09-06T20:52:30.860Z,101504.44
2023-09-06T20:55:05.822Z,101502.50
2023-09-06T20:57:36.267Z,101498.97
2023-09-06T21:00:10.655Z,101508.97
2023-09-06T21:02:41.211Z,101505.31
2023-09-06T21:05:11.994Z,101504.97
2023-09-06T21:07:44.389Z,101514.25
2023-09-06T21:10:20.190Z,101506.19
2023-09-06T21:12:50.290Z,101523.88
2023-09-06T21:15:20.600Z,101511.53
2023-09-06T21:17:53.689Z,101511.25
2023-09-06T21:20:24.673Z,101495.69
2023-09-06T21:22:58.066Z,101524.50
2023-09-06T21:25:30.858Z,101518.69
2023-09-06T21:28:01.025Z,101522.69
2023-09-06T21:30:31.710Z,101526.44
2023-09-06T21:33:02.111Z,101530.59
2023-09-06T21:35:33.029Z,101532.00
2023-09-06T21:38:03.351Z,101538.63
2023-09-06T21:40:36.162Z,101537.31
2023-09-06T21:43:17.560Z,101536.25
2023-09-06T21:45:48.824Z,101540.41
2023-09-06T21:48:22.086Z,101540.09
2023-09-06T21:51:08.543Z,101531.25
2023-09-06T21:53:39.596Z,101539.81
2023-09-06T21:56:12.844Z,101499.75
2023-09-06T21:58:58.495Z,101533.56
2023-09-06T22:01:29.395Z,101530.91
2023-09-06T22:04:20.184Z,101541.88
2023-09-06T22:07:11.109Z,101548.59
2023-09-06T22:10:00.541Z,101553.31
2023-09-06T22:12:52.258Z,101554.66
2023-09-06T22:15:22.906Z,101543.13
2023-09-06T22:17:53.142Z,101551.50
2023-09-06T22:20:24.615Z,101553.66
2023-09-06T22:22:54.759Z,101548.16
2023-09-06T22:25:27.593Z,101559.09
2023-09-06T22:28:05.808Z,101567.34
2023-09-06T22:30:38.039Z,101568.81
2023-09-06T22:33:18.052Z,101560.72
2023-09-06T22:35:48.275Z,101560.53
2023-09-06T22:38:18.639Z,101538.56
2023-09-06T22:40:49.077Z,101555.38
2023-09-06T22:43:22.516Z,101549.81
2023-09-06T22:45:57.166Z,101551.38
2023-09-06T22:48:32.135Z,101561.63
2023-09-06T22:51:09.981Z,101555.28
2023-09-06T22:53:42.899Z,101553.31
2023-09-06T22:56:15.672Z,101557.22
2023-09-06T22:58:48.425Z,101560.34
2023-09-06T23:01:21.056Z,101560.72
2023-09-06T23:03:56.294Z,101563.19
2023-09-06T23:06:29.363Z,101570.75
2023-09-06T23:08:59.606Z,101573.00
2023-09-06T23:11:43.203Z,101569.09
2023-09-06T23:14:18.747Z,101566.16
2023-09-06T23:16:50.382Z,101562.38
2023-09-06T23:19:26.325Z,101567.38
2023-09-06T23:21:59.815Z,101579.16
2023-09-06T23:24:32.411Z,101582.19
2023-09-06T23:27:14.786Z,101576.97
2023-09-06T23:29:53.463Z,101575.88
2023-09-06T23:32:26.520Z,101578.19
2023-09-06T23:34:59.270Z,101581.31
2023-09-06T23:37:30.422Z,101576.91
2023-09-06T23:40:12.481Z,101577.41
2023-09-06T23:42:44.409Z,101543.56
2023-09-06T23:45:19.722Z,101566.41
2023-09-06T23:47:49.825Z,101570.53
2023-09-06T23:50:20.106Z,101563.31
2023-09-06T23:52:54.110Z,101561.31
2023-09-06T23:55:24.827Z,101561.66
2023-09-06T23:57:57.258Z,101560.44
